Terminal Aerodrome Forecast
Issued by NWS

Home | Current Version | Previous Version | Text Only | Print | Product List | Glossary On
Versions: 1 2 3 4 5 6 7 8 9 10 11 12 13 14 15 16 17 18
000
FTAK31 PAJN 221620 AAA
TAFASI
TAF AMD
PASI 221620Z 2216/2312 12015KT P6SM -RA OVC050 WS020/15040KT
      TEMPO 2216/2220 12015G25KT 6SM -RA BR BKN030 OVC050
     FM230300 12018G27KT 4SM RA BR OVC025 WS020/15045KT=

USA.gov is the U.S. government's official web portal to all federal, state and local government web resources and services.